createdAt,value
2017-12-08T00:02:12.730Z,19.27
2017-12-08T00:04:40.339Z,19.30
2017-12-08T00:07:08.239Z,20.60
2017-12-08T00:09:36.201Z,19.30
2017-12-08T00:12:03.874Z,20.50
2017-12-08T00:14:31.500Z,19.07
2017-12-08T00:16:59.090Z,19.00
2017-12-08T00:19:26.698Z,20.33
2017-12-08T00:21:54.306Z,17.90
2017-12-08T00:24:21.907Z,20.17
2017-12-08T00:26:49.537Z,18.60
2017-12-08T00:29:17.501Z,19.40
2017-12-08T00:31:45.134Z,18.70
2017-12-08T00:34:13.028Z,17.73
2017-12-08T00:36:40.897Z,17.93
2017-12-08T00:39:08.868Z,17.40
2017-12-08T00:41:36.743Z,17.07
2017-12-08T00:44:04.356Z,20.00
2017-12-08T00:46:32.269Z,18.07
2017-12-08T00:48:59.857Z,17.20
2017-12-08T00:51:27.800Z,17.60
2017-12-08T00:53:55.401Z,18.03
2017-12-08T00:56:23.013Z,16.80
2017-12-08T00:58:50.640Z,17.27
2017-12-08T01:01:18.218Z,17.80
2017-12-08T01:03:45.839Z,17.90
2017-12-08T01:06:13.421Z,17.53
2017-12-08T01:08:41.032Z,17.03
2017-12-08T01:11:08.646Z,17.40
2017-12-08T01:13:36.237Z,19.00
2017-12-08T01:16:03.865Z,17.80
2017-12-08T01:18:31.459Z,18.50
2017-12-08T01:20:59.070Z,17.60
2017-12-08T01:23:26.932Z,17.53
2017-12-08T01:25:54.512Z,16.80
2017-12-08T01:28:22.133Z,17.80
2017-12-08T01:30:49.729Z,17.47
2017-12-08T01:33:17.613Z,18.13
2017-12-08T01:35:45.547Z,16.93
2017-12-08T01:38:13.130Z,18.00
2017-12-08T01:40:40.748Z,17.93
2017-12-08T01:43:08.624Z,18.13
2017-12-08T01:45:36.216Z,16.60
2017-12-08T01:48:03.834Z,17.30
2017-12-08T01:50:31.417Z,17.60
2017-12-08T01:52:59.375Z,16.73
2017-12-08T01:55:27.251Z,17.27
2017-12-08T01:57:54.833Z,16.00
2017-12-08T02:00:22.449Z,16.47
2017-12-08T02:02:50.351Z,17.60
2017-12-08T02:05:18.208Z,17.13
2017-12-08T02:07:45.824Z,18.03
2017-12-08T02:10:13.442Z,16.37
2017-12-08T02:12:41.014Z,15.93
2017-12-08T02:15:08.644Z,16.63
2017-12-08T02:17:36.223Z,15.50
2017-12-08T02:20:03.826Z,15.20
2017-12-08T02:22:31.445Z,16.20
2017-12-08T02:24:59.313Z,15.97
2017-12-08T02:27:26.983Z,15.60
2017-12-08T02:29:54.556Z,15.60
2017-12-08T02:32:22.149Z,15.50
2017-12-08T02:34:49.754Z,14.60
2017-12-08T02:37:17.328Z,15.47
2017-12-08T02:39:44.943Z,15.27
2017-12-08T02:42:12.537Z,13.63
2017-12-08T02:44:40.112Z,13.83
2017-12-08T02:47:08.009Z,14.50
2017-12-08T02:49:35.652Z,15.17
2017-12-08T02:52:03.283Z,13.80
2017-12-08T02:54:30.863Z,14.17
2017-12-08T02:56:58.435Z,13.67
2017-12-08T02:59:26.032Z,13.90
2017-12-08T03:01:53.622Z,13.33
2017-12-08T03:04:21.510Z,13.83
2017-12-08T03:06:49.085Z,13.20
2017-12-08T03:09:16.936Z,12.53
2017-12-08T03:11:44.598Z,13.50
2017-12-08T03:14:12.171Z,13.10
2017-12-08T03:16:39.799Z,12.57
2017-12-08T03:19:07.380Z,13.00
2017-12-08T03:21:34.961Z,13.40
2017-12-08T03:24:02.596Z,12.40
2017-12-08T03:26:30.177Z,13.07
2017-12-08T03:28:57.800Z,13.30
2017-12-08T03:31:25.396Z,12.93
2017-12-08T03:33:53.056Z,13.23
2017-12-08T03:36:20.685Z,13.40
2017-12-08T03:38:48.584Z,12.90
2017-12-08T03:41:16.221Z,12.80
2017-12-08T03:43:43.851Z,12.80
2017-12-08T03:46:11.444Z,12.73
2017-12-08T03:48:39.337Z,12.93
2017-12-08T03:51:06.920Z,13.63
2017-12-08T03:53:34.546Z,12.67
2017-12-08T03:56:02.125Z,12.20
2017-12-08T03:58:30.008Z,12.20
2017-12-08T04:00:57.656Z,12.37
2017-12-08T04:03:25.252Z,11.03
2017-12-08T04:05:52.871Z,12.07
2017-12-08T04:08:20.468Z,11.80
2017-12-08T04:10:48.050Z,12.40
2017-12-08T04:13:15.976Z,11.67
2017-12-08T04:15:43.592Z,12.43
2017-12-08T04:18:11.240Z,11.60
2017-12-08T04:20:38.818Z,12.10
2017-12-08T04:23:06.416Z,11.50
2017-12-08T04:25:34.028Z,12.60
2017-12-08T04:28:01.613Z,12.27
2017-12-08T04:30:29.615Z,12.13
2017-12-08T04:32:57.191Z,11.60
2017-12-08T04:35:24.770Z,11.50
2017-12-08T04:37:52.706Z,11.00
2017-12-08T04:40:20.571Z,11.93
2017-12-08T04:42:48.217Z,11.37
2017-12-08T04:45:15.821Z,11.40
2017-12-08T04:47:43.423Z,11.33
2017-12-08T04:50:11.150Z,11.47
2017-12-08T04:52:38.759Z,11.63
2017-12-08T04:55:06.385Z,11.43
2017-12-08T04:57:33.975Z,12.27
2017-12-08T05:00:01.877Z,11.60
2017-12-08T05:02:29.502Z,11.50
2017-12-08T05:04:57.083Z,10.90
2017-12-08T05:07:24.969Z,12.00
2017-12-08T05:09:52.552Z,11.67
2017-12-08T05:12:20.124Z,11.20
2017-12-08T05:14:48.076Z,10.83
2017-12-08T05:17:15.673Z,11.03
2017-12-08T05:19:44.177Z,11.40
2017-12-08T05:22:11.779Z,11.90
2017-12-08T05:24:39.596Z,11.77
2017-12-08T05:27:07.204Z,11.50
2017-12-08T05:29:35.172Z,11.00
2017-12-08T05:32:02.788Z,11.23
2017-12-08T05:34:30.374Z,11.67
2017-12-08T05:36:57.994Z,11.97
2017-12-08T05:39:25.616Z,11.00
2017-12-08T05:41:53.201Z,10.60
2017-12-08T05:44:20.824Z,10.90
2017-12-08T05:46:48.704Z,11.57
2017-12-08T05:49:16.307Z,11.33
2017-12-08T05:51:43.921Z,10.83
2017-12-08T05:54:11.642Z,11.10
2017-12-08T05:56:39.290Z,10.83
2017-12-08T05:59:07.120Z,10.43
2017-12-08T06:01:34.696Z,11.80
2017-12-08T06:04:02.313Z,10.97
2017-12-08T06:06:29.896Z,10.83
2017-12-08T06:08:57.533Z,11.10
2017-12-08T06:11:25.141Z,11.13
2017-12-08T06:13:52.721Z,10.97
2017-12-08T06:16:20.339Z,11.33
2017-12-08T06:18:48.228Z,11.50
2017-12-08T06:21:15.846Z,11.20
2017-12-08T06:23:43.437Z,11.00
2017-12-08T06:26:11.031Z,11.10
2017-12-08T06:28:38.649Z,11.90
2017-12-08T06:31:06.235Z,11.00
2017-12-08T06:33:33.866Z,11.17
2017-12-08T06:36:01.444Z,11.77
2017-12-08T06:38:29.326Z,11.00
2017-12-08T06:40:56.968Z,11.00
2017-12-08T06:43:24.564Z,11.50
2017-12-08T06:45:52.517Z,11.40
2017-12-08T06:48:20.107Z,11.13
2017-12-08T06:50:47.944Z,10.80
2017-12-08T06:53:15.553Z,11.17
2017-12-08T06:55:43.485Z,11.90
2017-12-08T06:58:11.125Z,10.93
2017-12-08T07:00:38.714Z,11.73
2017-12-08T07:03:06.786Z,11.30
2017-12-08T07:05:34.430Z,10.80
2017-12-08T07:08:02.320Z,11.40
2017-12-08T07:10:29.978Z,11.70
2017-12-08T07:12:57.582Z,10.83
2017-12-08T07:15:25.505Z,11.23
2017-12-08T07:17:53.116Z,11.43
2017-12-08T07:20:20.711Z,12.23
2017-12-08T07:22:48.350Z,11.53
2017-12-08T07:25:16.265Z,11.17
2017-12-08T07:27:43.856Z,11.23
2017-12-08T07:30:11.479Z,12.00
2017-12-08T07:32:39.062Z,10.97
2017-12-08T07:35:06.672Z,10.63
2017-12-08T07:37:34.267Z,11.53
2017-12-08T07:40:01.933Z,12.10
2017-12-08T07:42:29.548Z,11.10
2017-12-08T07:44:57.168Z,10.60
2017-12-08T07:47:25.016Z,11.00
2017-12-08T07:49:52.594Z,10.60
2017-12-08T07:52:20.208Z,10.73
2017-12-08T07:54:57.076Z,10.40
2017-12-08T07:57:25.427Z,10.50
2017-12-08T07:59:59.214Z,11.07
2017-12-08T08:02:28.493Z,12.87
2017-12-08T08:05:04.123Z,11.20
2017-12-08T08:10:27.137Z,11.17
2017-12-08T08:13:20.056Z,11.37
2017-12-08T08:15:57.063Z,11.37
2017-12-08T08:18:31.171Z,10.87
2017-12-08T08:21:01.265Z,11.20
2017-12-08T08:29:21.977Z,11.13
2017-12-08T08:31:49.584Z,11.40
2017-12-08T08:37:14.962Z,11.83
2017-12-08T08:39:45.394Z,11.50
2017-12-08T08:42:18.038Z,11.07
2017-12-08T08:47:41.232Z,11.13
2017-12-08T08:56:03.795Z,10.23
2017-12-08T08:58:34.208Z,10.57
2017-12-08T09:01:05.907Z,10.93
2017-12-08T09:06:43.509Z,10.70
2017-12-08T09:09:16.706Z,10.13
2017-12-08T09:11:48.526Z,10.20
2017-12-08T09:14:23.282Z,11.07
2017-12-08T09:19:37.118Z,10.17
2017-12-08T09:25:20.097Z,10.73
2017-12-08T09:30:58.751Z,11.07
2017-12-08T09:36:23.221Z,9.53
2017-12-08T09:38:51.739Z,11.17
2017-12-08T09:41:28.242Z,10.37
2017-12-08T09:43:56.644Z,10.53
2017-12-08T09:46:24.262Z,11.40
2017-12-08T09:48:51.868Z,9.87
2017-12-08T09:51:19.480Z,10.57
2017-12-08T09:53:47.080Z,9.90
2017-12-08T09:56:14.742Z,9.97
2017-12-08T09:58:42.368Z,9.93
2017-12-08T10:01:09.968Z,9.40
2017-12-08T10:03:37.893Z,10.30
2017-12-08T10:06:05.496Z,9.40
2017-12-08T10:08:33.128Z,9.67
2017-12-08T10:11:00.738Z,9.60
2017-12-08T10:13:28.646Z,9.10
2017-12-08T10:15:56.269Z,9.77
2017-12-08T10:18:23.866Z,9.83
2017-12-08T10:20:51.508Z,9.20
2017-12-08T10:23:19.149Z,9.83
2017-12-08T10:25:46.732Z,8.63
2017-12-08T10:28:14.377Z,9.43
2017-12-08T10:30:41.952Z,9.43
2017-12-08T10:33:09.853Z,10.00
2017-12-08T10:35:37.460Z,8.77
2017-12-08T10:38:05.057Z,9.50
2017-12-08T10:40:32.681Z,9.77
2017-12-08T10:43:00.611Z,8.90
2017-12-08T10:45:28.210Z,9.10
2017-12-08T10:47:55.837Z,9.13
2017-12-08T10:50:23.598Z,9.17
2017-12-08T10:52:51.260Z,9.20
2017-12-08T10:55:18.872Z,9.43
2017-12-08T10:57:46.787Z,8.90
2017-12-08T11:00:14.673Z,9.13
2017-12-08T11:02:43.137Z,9.20
2017-12-08T11:05:10.746Z,9.23
2017-12-08T11:07:38.396Z,9.93
2017-12-08T11:10:06.059Z,9.17
2017-12-08T11:12:33.632Z,9.57
2017-12-08T11:15:01.247Z,8.60
2017-12-08T11:17:29.238Z,10.10
2017-12-08T11:19:56.887Z,9.40
2017-12-08T11:22:24.509Z,9.60
2017-12-08T11:24:52.109Z,9.07
2017-12-08T11:27:19.788Z,9.00
2017-12-08T11:29:47.366Z,9.80
2017-12-08T11:32:15.038Z,9.33
2017-12-08T11:34:42.672Z,9.00
2017-12-08T11:37:10.256Z,10.07
2017-12-08T11:39:37.887Z,9.40
2017-12-08T11:42:05.760Z,9.43
2017-12-08T11:44:33.392Z,9.83
2017-12-08T11:47:00.974Z,9.10
2017-12-08T11:49:29.255Z,9.07
2017-12-08T11:51:56.864Z,9.40
2017-12-08T11:54:24.488Z,8.57
2017-12-08T11:56:52.492Z,9.43
2017-12-08T11:59:20.108Z,9.50
2017-12-08T12:01:47.697Z,9.20
2017-12-08T12:04:15.328Z,8.70
2017-12-08T12:06:42.904Z,9.03
2017-12-08T12:09:10.527Z,8.33
2017-12-08T12:11:38.111Z,8.87
2017-12-08T12:14:05.704Z,13.00
2017-12-08T12:16:33.652Z,9.33
2017-12-08T12:19:01.236Z,9.13
2017-12-08T12:21:28.981Z,8.90
2017-12-08T12:23:56.628Z,9.60
2017-12-08T12:26:24.503Z,9.23
2017-12-08T12:28:52.384Z,10.00
2017-12-08T12:31:19.980Z,9.40
2017-12-08T12:33:47.612Z,9.37
2017-12-08T12:36:15.219Z,9.50
2017-12-08T12:38:42.806Z,9.50
2017-12-08T12:41:10.474Z,9.53
2017-12-08T12:43:38.061Z,8.80
2017-12-08T12:46:05.686Z,9.20
2017-12-08T12:48:33.292Z,9.00
2017-12-08T12:51:00.880Z,9.30
2017-12-08T12:53:28.498Z,10.07
2017-12-08T12:55:56.106Z,9.47
2017-12-08T12:58:23.807Z,9.33
2017-12-08T13:00:51.400Z,9.17
2017-12-08T13:03:19.349Z,9.67
2017-12-08T13:05:46.986Z,8.73
2017-12-08T13:08:14.585Z,8.80
2017-12-08T13:10:42.543Z,9.97
2017-12-08T13:13:10.174Z,10.00
2017-12-08T13:15:37.755Z,9.67
2017-12-08T13:18:05.386Z,8.90
2017-12-08T13:20:32.971Z,9.20
2017-12-08T13:22:59.895Z,9.60
2017-12-08T13:25:27.476Z,9.23
2017-12-08T13:27:55.360Z,9.30
2017-12-08T13:30:22.999Z,9.03
2017-12-08T13:32:50.590Z,9.30
2017-12-08T13:35:18.216Z,9.60
2017-12-08T13:37:45.805Z,9.10
2017-12-08T13:40:13.429Z,9.70
2017-12-08T13:42:41.043Z,9.63
2017-12-08T13:45:08.636Z,9.90
2017-12-08T13:47:36.268Z,9.77
2017-12-08T13:50:03.873Z,9.60
2017-12-08T13:52:31.454Z,9.47
2017-12-08T13:57:58.112Z,9.40
2017-12-08T14:00:25.738Z,10.30
2017-12-08T14:02:53.364Z,9.57
2017-12-08T14:05:20.975Z,9.40
2017-12-08T14:07:48.546Z,9.10
2017-12-08T14:10:16.132Z,9.47
2017-12-08T14:12:43.757Z,9.67
2017-12-08T14:15:11.688Z,9.33
2017-12-08T14:17:39.304Z,9.57
2017-12-08T14:20:07.223Z,9.80
2017-12-08T14:22:34.815Z,8.37
2017-12-08T14:25:02.743Z,9.30
2017-12-08T14:27:30.341Z,8.80
2017-12-08T14:30:02.883Z,10.00
2017-12-08T14:32:30.979Z,9.17
2017-12-08T14:34:58.584Z,9.07
2017-12-08T14:37:27.409Z,9.70
2017-12-08T14:39:54.986Z,9.67
2017-12-08T14:42:23.659Z,9.20
2017-12-08T14:44:51.315Z,9.10
2017-12-08T14:47:20.055Z,9.73
2017-12-08T14:49:47.666Z,9.00
2017-12-08T14:52:15.750Z,9.37
2017-12-08T14:54:44.380Z,9.60
2017-12-08T14:57:12.115Z,8.90
2017-12-08T14:59:40.596Z,9.10
2017-12-08T15:02:08.170Z,9.90
2017-12-08T15:04:35.883Z,8.50
2017-12-08T15:07:03.775Z,9.07
2017-12-08T15:09:31.436Z,9.93
2017-12-08T15:11:59.119Z,8.97
2017-12-08T15:14:26.762Z,9.50
2017-12-08T15:16:54.402Z,9.07
2017-12-08T15:19:22.000Z,9.33
2017-12-08T15:21:49.568Z,9.90
2017-12-08T15:24:17.185Z,9.60
2017-12-08T15:26:44.770Z,9.40
2017-12-08T15:29:12.474Z,10.33
2017-12-08T15:31:40.120Z,9.03
2017-12-08T15:34:07.747Z,8.73
2017-12-08T15:36:35.404Z,9.10
2017-12-08T15:39:02.994Z,9.30
2017-12-08T15:41:30.636Z,10.20
2017-12-08T15:43:58.522Z,9.40
2017-12-08T15:46:26.200Z,9.50
2017-12-08T15:48:53.857Z,9.47
2017-12-08T15:51:21.657Z,9.13
2017-12-08T15:53:49.323Z,10.20
2017-12-08T15:56:16.971Z,9.13
2017-12-08T15:58:45.935Z,9.00
2017-12-08T16:01:13.996Z,8.83
2017-12-08T16:03:41.664Z,8.30
2017-12-08T16:06:09.290Z,8.53
2017-12-08T16:08:36.903Z,8.70
2017-12-08T16:11:04.665Z,8.70
2017-12-08T16:13:32.277Z,9.20
2017-12-08T16:15:59.863Z,9.07
2017-12-08T16:18:27.736Z,8.93
2017-12-08T16:20:55.677Z,8.90
2017-12-08T16:23:23.287Z,9.00
2017-12-08T16:25:50.961Z,8.90
2017-12-08T16:28:18.593Z,9.80
2017-12-08T16:30:46.217Z,9.37
2017-12-08T16:33:13.818Z,9.47
2017-12-08T16:35:41.459Z,9.57
2017-12-08T16:38:09.112Z,9.40
2017-12-08T16:40:36.719Z,9.70
2017-12-08T16:43:04.351Z,9.57
2017-12-08T16:45:31.933Z,9.90
2017-12-08T16:47:59.700Z,10.10
2017-12-08T16:50:27.306Z,10.20
2017-12-08T16:52:54.917Z,11.57
2017-12-08T16:55:22.552Z,12.23
2017-12-08T16:57:50.152Z,11.77
2017-12-08T17:00:17.750Z,10.90
2017-12-08T17:02:45.376Z,10.03
2017-12-08T17:05:12.970Z,10.73
2017-12-08T17:07:40.593Z,10.73
2017-12-08T17:10:08.168Z,10.70
2017-12-08T17:12:35.752Z,9.93
2017-12-08T17:15:03.681Z,11.00
2017-12-08T17:17:31.335Z,11.03
2017-12-08T17:19:58.996Z,10.90
2017-12-08T17:22:26.608Z,10.63
2017-12-08T17:24:54.241Z,10.37
2017-12-08T17:27:21.879Z,10.83
2017-12-08T17:29:49.465Z,10.60
2017-12-08T17:32:17.187Z,10.70
2017-12-08T17:34:44.851Z,10.90
2017-12-08T17:37:13.316Z,11.37
2017-12-08T17:39:41.162Z,12.20
2017-12-08T17:42:08.772Z,10.53
2017-12-08T17:44:36.377Z,10.33
2017-12-08T17:47:03.981Z,10.40
2017-12-08T17:49:31.647Z,10.70
2017-12-08T17:51:59.464Z,10.27
2017-12-08T17:54:27.040Z,10.50
2017-12-08T17:56:54.686Z,11.10
2017-12-08T17:59:22.272Z,11.30
2017-12-08T18:01:50.403Z,11.30
2017-12-08T18:04:18.285Z,10.13
2017-12-08T18:06:45.888Z,11.17
2017-12-08T18:09:13.554Z,11.90
2017-12-08T18:11:41.163Z,10.97
2017-12-08T18:14:08.789Z,11.70
2017-12-08T18:16:36.377Z,12.60
2017-12-08T18:19:03.985Z,11.80
2017-12-08T18:21:31.592Z,12.47
2017-12-08T18:23:59.188Z,12.80
2017-12-08T18:26:26.916Z,12.63
2017-12-08T18:28:54.620Z,12.67
2017-12-08T18:31:22.257Z,11.47
2017-12-08T18:33:49.884Z,12.50
2017-12-08T18:36:17.497Z,12.30
2017-12-08T18:38:45.353Z,12.63
2017-12-08T18:41:12.972Z,12.13
2017-12-08T18:43:40.572Z,13.33
2017-12-08T18:46:08.162Z,13.30
2017-12-08T18:48:35.796Z,12.73
2017-12-08T18:51:03.384Z,12.43
2017-12-08T18:53:30.997Z,12.93
2017-12-08T18:55:58.624Z,13.70
2017-12-08T18:58:26.227Z,13.47
2017-12-08T19:00:54.008Z,12.57
2017-12-08T19:03:21.714Z,13.00
2017-12-08T19:05:49.345Z,12.13
2017-12-08T19:08:17.307Z,12.30
2017-12-08T19:10:44.903Z,12.27
2017-12-08T19:13:12.565Z,12.93
2017-12-08T19:15:40.194Z,12.27
2017-12-08T19:18:07.908Z,12.90
2017-12-08T19:20:35.771Z,11.80
2017-12-08T19:23:03.340Z,13.27
2017-12-08T19:25:30.978Z,11.93
2017-12-08T19:27:58.581Z,11.20
2017-12-08T19:30:26.227Z,11.70
2017-12-08T19:32:53.948Z,11.43
2017-12-08T19:35:21.528Z,11.90
2017-12-08T19:37:49.173Z,12.53
2017-12-08T19:40:16.768Z,12.50
2017-12-08T19:42:44.362Z,11.50
2017-12-08T19:45:11.988Z,12.30
2017-12-08T19:47:39.565Z,12.03
2017-12-08T19:50:07.191Z,12.60
2017-12-08T19:52:34.904Z,12.63
2017-12-08T19:55:02.808Z,12.00
2017-12-08T19:57:30.421Z,12.27
2017-12-08T19:59:58.054Z,13.17
2017-12-08T20:02:25.686Z,12.30
2017-12-08T20:04:53.300Z,11.47
2017-12-08T20:07:21.288Z,11.80
2017-12-08T20:09:49.204Z,12.53
2017-12-08T20:12:16.794Z,12.20
2017-12-08T20:14:44.541Z,13.27
2017-12-08T20:17:12.395Z,10.87
2017-12-08T20:19:39.976Z,11.90
2017-12-08T20:22:07.652Z,12.60
2017-12-08T20:24:35.280Z,11.97
2017-12-08T20:27:02.888Z,11.73
2017-12-08T20:29:30.520Z,12.90
2017-12-08T20:31:58.116Z,12.17
2017-12-08T20:34:25.738Z,11.57
2017-12-08T20:36:53.370Z,12.27
2017-12-08T20:39:21.012Z,13.13
2017-12-08T20:41:48.765Z,12.20
2017-12-08T20:44:16.356Z,11.80
2017-12-08T20:46:43.961Z,12.00
2017-12-08T20:49:12.017Z,12.30
2017-12-08T20:51:39.681Z,13.03
2017-12-08T20:54:08.200Z,12.10
2017-12-08T20:56:35.813Z,11.90
2017-12-08T20:59:03.480Z,11.23
2017-12-08T21:01:31.085Z,11.80
2017-12-08T21:03:58.948Z,11.30
2017-12-08T21:06:26.828Z,11.70
2017-12-08T21:09:02.309Z,12.17
2017-12-08T21:11:30.009Z,11.90
2017-12-08T21:13:57.644Z,12.40
2017-12-08T21:16:25.453Z,11.67
2017-12-08T21:18:53.202Z,12.67
2017-12-08T21:21:20.828Z,12.40
2017-12-08T21:23:48.513Z,11.40
2017-12-08T21:26:16.152Z,11.00
2017-12-08T21:28:43.736Z,11.93
2017-12-08T21:31:11.729Z,12.47
2017-12-08T21:33:55.881Z,12.90
2017-12-08T21:36:23.490Z,11.10
2017-12-08T21:38:51.129Z,12.10
2017-12-08T21:41:18.833Z,11.63
2017-12-08T21:43:46.493Z,11.37
2017-12-08T21:46:14.139Z,10.60
2017-12-08T21:48:41.763Z,11.77
2017-12-08T21:51:09.396Z,11.93
2017-12-08T21:53:37.260Z,11.70
2017-12-08T21:56:05.127Z,12.03
2017-12-08T21:58:46.637Z,11.40
2017-12-08T22:01:14.243Z,10.83
2017-12-08T22:03:42.164Z,11.37
2017-12-08T22:06:09.757Z,11.90
2017-12-08T22:08:37.350Z,11.30
2017-12-08T22:11:05.325Z,10.77
2017-12-08T22:13:33.309Z,11.77
2017-12-08T22:16:00.948Z,11.37
2017-12-08T22:18:28.561Z,10.50
2017-12-08T22:20:56.156Z,11.30
2017-12-08T22:23:23.764Z,11.20
2017-12-08T22:25:55.268Z,10.97
2017-12-08T22:28:22.938Z,11.83
2017-12-08T22:30:50.759Z,12.20
2017-12-08T22:33:18.356Z,12.27
2017-12-08T22:35:46.273Z,11.70
2017-12-08T22:38:13.882Z,11.00
2017-12-08T22:40:41.506Z,11.67
2017-12-08T22:43:09.107Z,11.10
2017-12-08T22:45:36.938Z,11.37
2017-12-08T22:48:04.585Z,11.67
2017-12-08T22:50:32.206Z,11.60
2017-12-08T22:52:59.837Z,12.37
2017-12-08T22:55:27.428Z,12.30
2017-12-08T22:57:55.852Z,12.30
2017-12-08T23:00:28.420Z,11.90
2017-12-08T23:02:56.048Z,12.00
2017-12-08T23:05:23.745Z,11.57
2017-12-08T23:07:51.377Z,12.40
2017-12-08T23:10:18.959Z,13.37
2017-12-08T23:12:46.591Z,12.40
2017-12-08T23:15:14.254Z,12.30
2017-12-08T23:17:41.914Z,12.60
2017-12-08T23:20:09.491Z,12.87
2017-12-08T23:22:37.072Z,13.00
2017-12-08T23:25:04.695Z,12.97
2017-12-08T23:27:32.276Z,14.03
2017-12-08T23:29:59.920Z,13.03
2017-12-08T23:32:27.580Z,13.20
2017-12-08T23:34:55.508Z,12.67
2017-12-08T23:37:23.153Z,12.97
2017-12-08T23:39:50.776Z,12.90
2017-12-08T23:42:18.435Z,12.87
2017-12-08T23:44:46.040Z,12.60
2017-12-08T23:47:13.654Z,12.90
2017-12-08T23:49:41.318Z,13.20
2017-12-08T23:52:08.908Z,11.97
2017-12-08T23:54:36.547Z,13.40
2017-12-08T23:57:04.175Z,12.03
2017-12-08T23:59:31.761Z,12.73
